Time;durP1;ratioP1;P1;durP2;ratioP2;P2;SDS_P1;SDS_P2;PMS_P1;PMS_P2;Temp;Humidity;BMP_temperature;BMP_pressure;BME280_temperature;BME280_humidity;BME280_pressure;Samples;Min_cycle;Max_cycle;Signal;HPM_P1;HPM_P2
2022/04/03 00:02:08;;;;;;;7.13;2.47;;;;;;;6.01;100.00;102103.63;5052323;28;20059;-83
2022/04/03 00:04:34;;;;;;;6.15;2.25;;;;;;;5.44;100.00;102046.19;5051029;28;20059;-83
2022/04/03 00:07:02;;;;;;;7.35;2.75;;;;;;;5.67;100.00;102093.94;5052617;28;20053;-83
2022/04/03 00:09:29;;;;;;;7.00;2.40;;;;;;;5.53;100.00;102085.19;5051638;28;20424;-83
2022/04/03 00:11:55;;;;;;;7.00;2.40;;;;;;;5.50;100.00;102075.66;5051621;28;20076;-84
2022/04/03 00:14:22;;;;;;;6.78;2.17;;;;;;;5.11;100.00;102046.00;5069862;28;20048;-84
2022/04/03 00:16:49;;;;;;;4.47;1.98;;;;;;;4.98;100.00;102049.41;5070249;28;20059;-84
2022/04/03 00:19:16;;;;;;;6.72;2.38;;;;;;;5.16;100.00;102051.22;5071705;28;20051;-84
2022/04/03 00:21:43;;;;;;;4.55;1.98;;;;;;;5.15;100.00;102070.25;5070699;28;20045;-84
2022/04/03 00:24:09;;;;;;;5.53;2.17;;;;;;;4.93;100.00;102069.25;5070566;28;20045;-84
2022/04/03 00:26:36;;;;;;;6.35;1.92;;;;;;;4.99;100.00;102069.28;5070475;28;20478;-84
2022/04/03 00:29:04;;;;;;;6.35;2.35;;;;;;;5.07;100.00;102049.44;5069236;28;20081;-83
2022/04/03 00:31:30;;;;;;;5.78;2.08;;;;;;;4.79;100.00;102025.03;5051511;28;20053;-83
2022/04/03 00:33:57;;;;;;;3.85;1.50;;;;;;;5.08;100.00;102084.06;5067736;28;20044;-83
2022/04/03 00:36:24;;;;;;;6.75;2.35;;;;;;;5.06;100.00;102086.63;5068555;28;20099;-83
2022/04/03 00:38:51;;;;;;;4.80;1.80;;;;;;;5.08;100.00;102064.19;5065845;28;20067;-84
2022/04/03 00:41:20;;;;;;;6.28;2.05;;;;;;;4.84;100.00;102038.06;5071515;28;20063;-83
2022/04/03 00:43:48;;;;;;;5.80;2.10;;;;;;;5.13;100.00;102084.97;5070088;28;20417;-82
2022/04/03 00:46:19;;;;;;;5.90;2.35;;;;;;;5.17;100.00;102088.44;5070247;28;20048;-82
2022/04/03 00:48:47;;;;;;;6.65;2.05;;;;;;;5.00;100.00;102076.22;5070516;28;20478;-82
2022/04/03 00:51:14;;;;;;;5.43;1.80;;;;;;;4.99;100.00;102084.00;5070107;28;20055;-82
2022/04/03 00:53:41;;;;;;;8.40;2.08;;;;;;;4.59;100.00;102034.41;5070791;28;20048;-82
2022/04/03 00:56:08;;;;;;;7.15;3.00;;;;;;;4.41;100.00;102004.88;5075230;28;20052;-83
2022/04/03 00:58:38;;;;;;;6.22;2.20;;;;;;;4.65;100.00;102037.91;5076020;28;20055;-83
2022/04/03 01:01:05;;;;;;;4.10;1.80;;;;;;;4.92;100.00;102058.03;5075124;28;20044;-83
2022/04/03 01:03:32;;;;;;;5.00;1.73;;;;;;;4.97;100.00;102054.56;5069777;28;20044;-82
2022/04/03 01:05:59;;;;;;;6.13;1.98;;;;;;;4.81;100.00;102061.38;5055598;28;20057;-82
2022/04/03 01:08:26;;;;;;;5.97;1.90;;;;;;;4.60;100.00;102059.47;5062550;28;20127;-82
2022/04/03 01:10:53;;;;;;;5.43;1.80;;;;;;;4.78;100.00;102069.13;5073836;28;20500;-83
2022/04/03 01:13:21;;;;;;;5.82;1.90;;;;;;;4.73;100.00;102062.19;5073741;28;20131;-83
2022/04/03 01:15:59;;;;;;;6.03;2.20;;;;;;;4.86;100.00;102060.56;5073400;28;20486;-84
2022/04/03 01:18:27;;;;;;;7.63;2.13;;;;;;;4.67;100.00;102031.00;5074521;28;20044;-84
2022/04/03 01:20:54;;;;;;;4.95;1.70;;;;;;;4.41;100.00;102028.22;5062403;28;20076;-83
2022/04/03 01:23:27;;;;;;;5.03;1.98;;;;;;;4.55;100.00;102049.94;5066654;28;20052;-83
2022/04/03 01:25:53;;;;;;;4.97;2.00;;;;;;;4.49;100.00;102034.31;5074971;28;20056;-83
2022/04/03 01:28:20;;;;;;;5.20;2.00;;;;;;;4.50;100.00;102024.84;5074347;28;20045;-83
2022/04/03 01:30:47;;;;;;;4.50;1.60;;;;;;;4.46;100.00;102034.31;5059032;28;20044;-83
2022/04/03 01:33:16;;;;;;;4.30;1.85;;;;;;;4.77;100.00;102057.03;5061694;28;20099;-83
2022/04/03 01:35:43;;;;;;;3.58;1.50;;;;;;;4.86;100.00;102032.00;5075146;28;20049;-82
2022/04/03 01:38:10;;;;;;;3.58;1.60;;;;;;;4.75;100.00;102044.91;5073380;28;20123;-83
2022/04/03 01:40:37;;;;;;;3.58;1.60;;;;;;;4.72;100.00;102059.59;5073478;28;20044;-83
2022/04/03 01:43:06;;;;;;;8.65;1.40;;;;;;;4.66;100.00;102034.47;5069415;28;20057;-83
2022/04/03 01:45:34;;;;;;;3.47;1.60;;;;;;;4.68;100.00;102039.66;5065858;28;20056;-83
2022/04/03 01:48:02;;;;;;;3.88;1.67;;;;;;;4.71;100.00;102050.03;5079414;28;20724;-83
2022/04/03 01:50:29;;;;;;;3.38;1.63;;;;;;;4.73;100.00;102033.66;5054273;28;20052;-83
2022/04/03 01:52:55;;;;;;;3.92;1.73;;;;;;;4.41;100.00;101993.59;5061313;28;20054;-83
2022/04/03 01:55:26;;;;;;;3.38;1.60;;;;;;;4.75;100.00;102021.56;5074385;28;20049;-83
2022/04/03 01:57:53;;;;;;;5.32;1.77;;;;;;;4.79;100.00;102031.97;5074744;28;20075;-83
2022/04/03 02:00:21;;;;;;;4.80;1.80;;;;;;;4.77;100.00;102029.34;5061423;28;20053;-83
2022/04/03 02:02:50;;;;;;;3.97;1.63;;;;;;;4.79;100.00;102027.63;5056618;28;20045;-83
2022/04/03 02:05:17;;;;;;;6.22;1.73;;;;;;;4.97;100.00;102032.06;5052919;28;20056;-82
2022/04/03 02:07:44;;;;;;;7.10;2.00;;;;;;;4.81;100.00;102028.50;5053588;28;20131;-82
2022/04/03 02:10:12;;;;;;;4.78;1.75;;;;;;;4.60;100.00;102002.41;5054512;28;20562;-82
2022/04/03 02:12:39;;;;;;;7.13;2.20;;;;;;;4.93;100.00;102038.09;5071989;28;20045;-82
2022/04/03 02:15:08;;;;;;;6.65;1.85;;;;;;;4.47;100.00;101978.97;5073911;28;20049;-82
2022/04/03 02:17:35;;;;;;;7.43;2.13;;;;;;;4.77;100.00;102015.53;5074535;28;20114;-83
2022/04/03 02:20:03;;;;;;;4.05;1.67;;;;;;;4.51;100.00;102018.75;5074694;28;20165;-83
2022/04/03 02:22:30;;;;;;;5.40;1.60;;;;;;;4.61;100.00;102014.53;5072243;28;20144;-83
2022/04/03 02:24:56;;;;;;;6.70;1.83;;;;;;;4.71;100.00;102019.81;5074514;28;20434;-83
2022/04/03 02:27:24;;;;;;;4.40;1.73;;;;;;;4.68;100.00;102008.53;5068878;28;20045;-82
2022/04/03 02:29:51;;;;;;;4.63;1.50;;;;;;;4.71;100.00;102009.44;5073949;28;20592;-83
2022/04/03 02:32:18;;;;;;;3.88;1.70;;;;;;;4.70;100.00;102010.28;5071796;28;20048;-82
2022/04/03 02:34:44;;;;;;;4.15;1.75;;;;;;;4.94;100.00;102003.53;5074446;28;20055;-83
2022/04/03 02:37:13;;;;;;;2.83;1.40;;;;;;;4.98;100.00;102010.47;5073865;28;20055;-83
2022/04/03 02:39:41;;;;;;;6.30;1.58;;;;;;;4.86;100.00;102003.47;5073982;28;20431;-83
2022/04/03 02:42:08;;;;;;;3.95;1.60;;;;;;;4.98;100.00;102017.38;5073543;28;20494;-82
2022/04/03 02:44:35;;;;;;;3.42;1.40;;;;;;;4.86;100.00;102000.00;5072762;28;20048;-83
2022/04/03 02:47:02;;;;;;;3.63;1.33;;;;;;;4.81;100.00;102001.69;5093751;28;20044;-83
2022/04/03 02:49:29;;;;;;;3.92;1.50;;;;;;;4.53;100.00;101968.66;5093301;28;20405;-83
2022/04/03 02:51:55;;;;;;;5.60;1.50;;;;;;;4.67;100.00;101967.88;5092909;28;20469;-83
2022/04/03 02:54:22;;;;;;;2.95;1.42;;;;;;;4.80;100.00;101993.06;5072127;28;20135;-83
2022/04/03 02:56:49;;;;;;;3.67;1.40;;;;;;;4.73;100.00;101986.94;5072717;28;20585;-83
2022/04/03 02:59:16;;;;;;;2.15;1.13;;;;;;;4.48;100.00;101912.41;5073328;28;20139;-83
2022/04/03 03:01:42;;;;;;;2.58;1.30;;;;;;;4.72;100.00;101971.38;5073731;28;20048;-83
2022/04/03 03:04:09;;;;;;;4.80;1.40;;;;;;;4.84;100.00;101971.44;5084594;28;20063;-83
2022/04/03 03:06:36;;;;;;;2.35;1.30;;;;;;;5.03;100.00;101987.09;5090457;28;20055;-83
2022/04/03 03:09:03;;;;;;;5.22;1.67;;;;;;;4.92;100.00;101959.38;5073664;28;20129;-83
2022/04/03 03:11:29;;;;;;;4.75;1.40;;;;;;;5.14;100.00;101999.28;5073223;28;20044;-82
2022/04/03 03:13:56;;;;;;;3.80;1.45;;;;;;;4.97;100.00;101976.69;5071762;28;20479;-83
2022/04/03 03:16:23;;;;;;;4.28;1.50;;;;;;;4.92;100.00;101982.75;5070944;28;20056;-83
2022/04/03 03:18:50;;;;;;;4.60;1.63;;;;;;;4.49;100.00;101924.53;5073358;28;20052;-83
2022/04/03 03:21:16;;;;;;;4.97;1.80;;;;;;;4.72;100.00;101948.88;5073237;28;20368;-83
2022/04/03 03:23:43;;;;;;;4.15;1.85;;;;;;;4.74;100.00;101991.25;5070369;28;20094;-83
2022/04/03 03:26:10;;;;;;;5.00;1.75;;;;;;;4.40;100.00;101908.91;5072302;28;20464;-83
2022/04/03 03:28:37;;;;;;;3.45;1.35;;;;;;;4.85;100.00;101978.38;5071533;28;20059;-83
2022/04/03 03:31:03;;;;;;;4.35;1.77;;;;;;;4.62;100.00;101970.44;5072240;28;20398;-83
2022/04/03 03:33:30;;;;;;;3.90;1.50;;;;;;;4.79;100.00;101967.94;5067068;28;20127;-83
2022/04/03 03:35:57;;;;;;;3.78;1.63;;;;;;;4.68;100.00;101974.81;5052988;28;20063;-83
2022/04/03 03:38:24;;;;;;;3.60;1.60;;;;;;;4.53;100.00;101949.59;5070606;28;20062;-83
2022/04/03 03:40:51;;;;;;;2.85;1.42;;;;;;;4.41;100.00;101913.22;5068286;28;20538;-83
2022/04/03 03:43:18;;;;;;;3.13;1.50;;;;;;;4.59;100.00;101948.81;5065257;28;20052;-83
2022/04/03 03:45:44;;;;;;;4.35;1.33;;;;;;;4.89;100.00;101961.09;5072484;28;20055;-83
2022/04/03 03:48:11;;;;;;;3.20;1.30;;;;;;;4.82;100.00;101970.56;5071717;28;20479;-83
2022/04/03 03:50:38;;;;;;;3.85;1.25;;;;;;;4.28;100.00;101886.34;5067811;28;20055;-83
2022/04/03 03:53:05;;;;;;;3.53;1.63;;;;;;;4.88;100.00;101970.59;5057493;28;20059;-83
2022/04/03 03:55:32;;;;;;;4.30;1.40;;;;;;;4.68;100.00;101943.66;5052810;28;20070;-83
2022/04/03 03:57:59;;;;;;;3.40;1.40;;;;;;;4.38;100.00;101921.84;5053052;28;20048;-83
2022/04/03 04:00:26;;;;;;;2.75;1.40;;;;;;;4.71;100.00;101954.03;5052464;28;20435;-83
2022/04/03 04:02:53;;;;;;;1.92;1.20;;;;;;;4.54;100.00;101941.84;5058089;28;20063;-83
2022/04/03 04:05:20;;;;;;;3.42;1.40;;;;;;;4.46;100.00;101920.19;5070668;28;20135;-83
2022/04/03 04:07:47;;;;;;;2.40;1.30;;;;;;;4.61;100.00;101940.16;5072584;28;20500;-83
2022/04/03 04:10:16;;;;;;;1.73;1.20;;;;;;;4.54;100.00;101930.59;5070892;28;20049;-83
2022/04/03 04:12:45;;;;;;;2.45;1.30;;;;;;;4.64;100.00;101949.69;5067032;28;20171;-83
2022/04/03 04:15:13;;;;;;;3.58;1.42;;;;;;;4.53;100.00;101929.75;5067178;28;20052;-83
2022/04/03 04:17:44;;;;;;;3.63;1.40;;;;;;;4.33;100.00;101908.00;5071372;28;20048;-83
2022/04/03 04:20:13;;;;;;;4.05;1.30;;;;;;;4.48;100.00;101918.47;5072496;28;20056;-83
2022/04/03 04:22:42;;;;;;;2.72;1.30;;;;;;;4.44;100.00;101913.25;5066117;28;20398;-83
2022/04/03 04:25:11;;;;;;;3.05;1.30;;;;;;;4.39;100.00;101905.41;5065605;28;20063;-83
2022/04/03 04:27:38;;;;;;;3.15;1.40;;;;;;;4.42;100.00;101918.41;5071252;28;20501;-83
2022/04/03 04:30:06;;;;;;;3.70;1.30;;;;;;;4.41;100.00;101905.44;5069104;28;20052;-83
2022/04/03 04:32:32;;;;;;;5.45;1.92;;;;;;;4.35;100.00;101865.63;5054856;28;20486;-83
2022/04/03 04:34:59;;;;;;;4.15;1.40;;;;;;;4.63;100.00;101898.66;5069903;28;20394;-83
2022/04/03 04:37:26;;;;;;;4.05;1.92;;;;;;;4.64;100.00;101897.78;5069846;28;20131;-83
2022/04/03 04:39:53;;;;;;;3.90;1.50;;;;;;;4.57;100.00;101896.91;5069508;28;20053;-83
2022/04/03 04:42:19;;;;;;;3.55;1.63;;;;;;;4.48;100.00;101894.25;5069311;28;20123;-83
2022/04/03 04:44:47;;;;;;;3.13;1.60;;;;;;;4.12;100.00;101882.78;5069988;28;20088;-83
2022/04/03 04:47:14;;;;;;;7.57;1.92;;;;;;;3.75;100.00;101903.19;5051709;28;20137;-83
2022/04/03 04:49:41;;;;;;;4.57;1.73;;;;;;;3.43;100.00;101862.31;5050702;28;20057;-83
2022/04/03 04:52:07;;;;;;;4.53;1.90;;;;;;;3.52;100.00;101910.72;5053502;28;20045;-83
2022/04/03 04:54:35;;;;;;;9.32;1.90;;;;;;;3.55;100.00;101914.22;5071726;28;20044;-84
2022/04/03 04:57:02;;;;;;;7.72;2.03;;;;;;;3.23;100.00;101919.91;5070171;28;20091;-83
2022/04/03 04:59:31;;;;;;;5.20;1.85;;;;;;;3.15;100.00;101894.78;5069322;28;20454;-83
2022/04/03 05:01:59;;;;;;;4.97;2.15;;;;;;;3.19;100.00;101901.75;5070068;28;20040;-83
2022/04/03 05:04:27;;;;;;;5.07;2.03;;;;;;;3.09;100.00;101908.53;5068959;28;20055;-83
2022/04/03 05:06:54;;;;;;;4.70;1.98;;;;;;;3.02;100.00;101912.75;5070198;28;20063;-82
2022/04/03 05:09:22;;;;;;;6.53;2.35;;;;;;;2.72;100.00;101876.16;5071629;28;20045;-83
2022/04/03 05:11:49;;;;;;;6.20;2.13;;;;;;;2.80;100.00;101913.34;5069657;28;20066;-82
2022/04/03 05:14:16;;;;;;;6.75;2.20;;;;;;;2.46;100.00;101890.47;5062469;28;20053;-83
2022/04/03 05:16:43;;;;;;;6.28;2.30;;;;;;;2.42;100.00;101899.00;5079961;28;20053;-82
2022/04/03 05:19:13;;;;;;;7.20;2.40;;;;;;;2.47;100.00;101868.94;5067969;28;20048;-83
2022/04/03 05:21:41;;;;;;;7.53;2.40;;;;;;;2.49;100.00;101917.22;5070400;28;20045;-82
2022/04/03 05:24:08;;;;;;;4.93;2.00;;;;;;;2.42;100.00;101886.09;5064595;28;20063;-82
2022/04/03 05:26:36;;;;;;;5.47;1.85;;;;;;;2.61;100.00;101894.97;5058123;28;20132;-82
2022/04/03 05:29:08;;;;;;;6.93;2.30;;;;;;;2.78;100.00;101905.56;5058888;28;20052;-82
2022/04/03 05:31:35;;;;;;;4.38;1.90;;;;;;;2.67;100.00;101860.56;5070006;28;20048;-82
2022/04/03 05:34:02;;;;;;;5.10;2.00;;;;;;;2.44;100.00;101821.50;5068712;28;20068;-82
2022/04/03 05:36:29;;;;;;;5.55;1.98;;;;;;;2.71;100.00;101836.50;5056896;28;20119;-82
2022/04/03 05:38:56;;;;;;;4.47;1.92;;;;;;;3.07;100.00;101886.09;5068596;28;20063;-82
2022/04/03 05:41:22;;;;;;;4.07;1.80;;;;;;;3.02;100.00;101839.44;5073222;28;20056;-82
2022/04/03 05:43:53;;;;;;;7.68;2.13;;;;;;;3.29;100.00;101877.69;5073115;28;20068;-82
2022/04/03 05:46:20;;;;;;;4.95;1.88;;;;;;;3.44;100.00;101879.59;5071067;28;20044;-82
2022/04/03 05:48:47;;;;;;;4.15;1.63;;;;;;;3.56;100.00;101871.06;5071871;28;20470;-82
2022/04/03 05:51:14;;;;;;;4.07;1.58;;;;;;;3.66;100.00;101872.03;5080453;28;20048;-82
2022/04/03 05:53:41;;;;;;;4.15;1.70;;;;;;;3.72;100.00;101872.06;5069524;28;20465;-83
2022/04/03 05:56:09;;;;;;;3.88;1.55;;;;;;;3.73;100.00;101868.63;5067618;28;20057;-82
2022/04/03 05:58:36;;;;;;;3.83;1.63;;;;;;;3.78;100.00;101872.13;5057591;28;20136;-82
2022/04/03 06:01:03;;;;;;;2.92;1.63;;;;;;;3.65;100.00;101868.59;5072426;28;20040;-82
2022/04/03 06:03:30;;;;;;;4.70;1.70;;;;;;;3.74;100.00;101870.38;5065550;28;20045;-82
2022/04/03 06:05:57;;;;;;;4.30;1.73;;;;;;;3.76;100.00;101866.09;5071169;28;20139;-81
2022/04/03 06:08:28;;;;;;;5.53;1.70;;;;;;;3.94;100.00;101855.84;5054015;28;20809;-82
2022/04/03 06:10:55;;;;;;;6.72;2.40;;;;;;;4.02;100.00;101849.84;5061461;28;20140;-82
2022/04/03 06:13:24;;;;;;;4.95;1.83;;;;;;;4.07;100.00;101861.13;5074357;28;20053;-82
2022/04/03 06:15:51;;;;;;;4.82;1.60;;;;;;;4.12;100.00;101867.22;5064956;28;20132;-82
2022/04/03 06:18:21;;;;;;;4.38;1.88;;;;;;;3.95;100.00;101841.19;5064559;28;20048;-83
2022/04/03 06:20:49;;;;;;;5.93;1.98;;;;;;;4.26;100.00;101865.59;5053336;28;20103;-83
2022/04/03 06:23:21;;;;;;;5.57;2.53;;;;;;;4.29;100.00;101852.66;5065081;28;20052;-83
2022/04/03 06:25:52;;;;;;;4.07;1.60;;;;;;;4.25;100.00;101847.44;5073342;28;20463;-83
2022/04/03 06:28:19;;;;;;;3.75;1.50;;;;;;;4.50;100.00;101861.44;5072809;28;20131;-84
2022/04/03 06:30:47;;;;;;;5.05;1.80;;;;;;;4.34;100.00;101845.78;5072868;28;20048;-84
2022/04/03 06:33:16;;;;;;;3.55;1.50;;;;;;;4.65;100.00;101848.50;5071748;28;20052;-84
2022/04/03 06:35:44;;;;;;;3.00;1.48;;;;;;;4.61;100.00;101857.16;5072688;28;20058;-84
2022/04/03 06:38:12;;;;;;;4.80;2.35;;;;;;;4.60;100.00;101837.25;5073798;28;20087;-83
2022/04/03 06:40:54;;;;;;;2.13;1.27;;;;;;;4.78;100.00;101833.00;5073692;28;20095;-84
2022/04/03 06:43:24;;;;;;;5.18;1.60;;;;;;;4.80;100.00;101854.63;5072602;28;20183;-84
2022/04/03 06:45:52;;;;;;;3.45;1.50;;;;;;;5.00;100.00;101853.00;5077956;28;20053;-84
2022/04/03 06:48:20;;;;;;;6.47;1.73;;;;;;;5.14;100.00;101861.69;5073362;28;20056;-83
2022/04/03 06:50:47;;;;;;;3.00;1.40;;;;;;;5.04;100.00;101846.94;5073396;28;20847;-83
2022/04/03 06:53:14;;;;;;;13.05;2.35;;;;;;;5.22;100.00;101853.91;5071374;28;20070;-83
2022/04/03 06:55:42;;;;;;;3.60;1.60;;;;;;;5.46;100.00;101854.84;5072347;28;20387;-83
2022/04/03 06:58:08;;;;;;;4.75;1.50;;;;;;;5.56;100.00;101843.59;5072144;28;20053;-83
2022/04/03 07:00:40;;;;;;;4.10;1.58;;;;;;;5.35;100.00;101831.44;5072199;28;20075;-83
2022/04/03 07:03:07;;;;;;;2.95;1.50;;;;;;;5.78;100.00;101860.06;5071104;28;20045;-85
2022/04/03 07:05:34;;;;;;;4.15;1.50;;;;;;;5.90;100.00;101839.25;5072078;28;20059;-83
2022/04/03 07:08:01;;;;;;;2.65;1.30;;;;;;;6.17;100.00;101815.88;5057432;28;20045;-84
2022/04/03 07:10:28;;;;;;;3.30;1.30;;;;;;;6.64;100.00;101833.94;5053475;28;20055;-85
2022/04/03 07:12:55;;;;;;;3.45;1.45;;;;;;;6.90;100.00;101838.16;5055508;28;20766;-84
2022/04/03 07:15:22;;;;;;;4.88;1.40;;;;;;;6.89;100.00;101819.94;5071400;28;20048;-84
2022/04/03 07:17:49;;;;;;;3.58;1.83;;;;;;;7.12;100.00;101836.31;5092126;28;20377;-84
2022/04/03 07:20:16;;;;;;;2.40;1.13;;;;;;;7.09;100.00;101841.53;5091746;28;20136;-84
2022/04/03 07:22:44;;;;;;;4.38;1.40;;;;;;;6.47;100.00;101844.41;5086052;28;20133;-83
2022/04/03 07:25:12;;;;;;;3.42;1.27;;;;;;;6.57;100.00;101853.06;5071801;28;20052;-84
2022/04/03 07:27:40;;;;;;;2.50;1.25;;;;;;;6.77;100.00;101807.88;5071494;28;20052;-83
2022/04/03 07:30:09;;;;;;;3.15;1.40;;;;;;;6.92;100.00;101835.56;5071524;28;20052;-84
2022/04/03 07:32:38;;;;;;;2.97;1.00;;;;;;;6.98;100.00;101805.16;5070472;28;20127;-84
2022/04/03 07:35:05;;;;;;;3.70;1.50;;;;;;;7.47;100.00;101835.25;5073134;28;20044;-85
2022/04/03 07:37:32;;;;;;;2.15;1.20;;;;;;;7.54;100.00;101821.28;5072550;28;20056;-84
2022/04/03 07:40:00;;;;;;;2.35;1.20;;;;;;;7.63;100.00;101835.97;5063859;28;20048;-84
2022/04/03 07:42:27;;;;;;;3.33;1.15;;;;;;;7.84;100.00;101814.06;5062670;28;20044;-84
2022/04/03 07:44:54;;;;;;;2.97;1.25;;;;;;;7.96;98.87;101819.16;5071948;28;20486;-83
2022/04/03 07:47:20;;;;;;;4.43;1.42;;;;;;;8.25;97.06;101806.72;5052343;28;20521;-84
2022/04/03 07:49:47;;;;;;;3.47;1.20;;;;;;;8.44;95.25;101803.06;5051559;28;20558;-84
2022/04/03 07:52:15;;;;;;;4.38;1.52;;;;;;;9.03;93.54;101815.38;5056965;28;20391;-83
2022/04/03 07:54:42;;;;;;;3.03;1.20;;;;;;;8.86;89.57;101803.41;5068154;28;20052;-84
2022/04/03 07:57:10;;;;;;;2.88;1.42;;;;;;;9.12;93.61;101791.75;5067715;28;20873;-84
2022/04/03 07:59:37;;;;;;;4.68;1.52;;;;;;;9.01;87.92;101814.53;5072581;28;20051;-84
2022/04/03 08:02:04;;;;;;;6.15;1.48;;;;;;;8.92;85.70;101782.44;5063452;28;20045;-84
2022/04/03 08:04:31;;;;;;;2.47;1.00;;;;;;;9.11;85.53;101790.84;5063731;28;20049;-83
2022/04/03 08:06:58;;;;;;;2.58;1.10;;;;;;;9.17;84.21;101805.59;5063615;28;20052;-84
2022/04/03 08:09:24;;;;;;;2.05;1.02;;;;;;;9.54;82.30;101763.19;5066688;28;20060;-84
2022/04/03 08:11:51;;;;;;;2.75;1.10;;;;;;;9.85;81.09;101789.66;5066980;28;20048;-84
2022/04/03 08:14:18;;;;;;;2.53;1.10;;;;;;;9.79;78.46;101792.41;5069203;28;20439;-84
2022/04/03 08:16:45;;;;;;;3.10;1.10;;;;;;;9.99;76.26;101786.81;5069038;28;20076;-84
2022/04/03 08:19:13;;;;;;;2.47;1.38;;;;;;;10.50;77.56;101783.25;5066377;28;20063;-83
2022/04/03 08:21:40;;;;;;;2.20;0.90;;;;;;;10.53;76.68;101787.56;5053631;28;20052;-83
2022/04/03 08:24:07;;;;;;;2.67;1.00;;;;;;;10.77;74.20;101778.31;5068492;28;20062;-84
2022/04/03 08:26:34;;;;;;;2.70;1.00;;;;;;;10.62;77.50;101721.88;5067473;28;20044;-84
2022/04/03 08:29:01;;;;;;;2.90;1.10;;;;;;;10.85;72.87;101786.84;5051710;28;20055;-84
2022/04/03 08:31:28;;;;;;;1.95;0.95;;;;;;;11.16;74.14;101768.69;5050683;28;20049;-83
2022/04/03 08:33:55;;;;;;;3.60;1.10;;;;;;;10.73;72.44;101769.66;5066755;28;20106;-83
2022/04/03 08:36:22;;;;;;;3.15;1.00;;;;;;;10.90;71.66;101765.81;5070867;28;20487;-83
2022/04/03 08:38:50;;;;;;;3.25;1.38;;;;;;;9.94;71.52;101767.72;5062707;28;20135;-84
2022/04/03 08:41:17;;;;;;;2.72;1.10;;;;;;;10.74;72.84;101770.53;5063648;28;20087;-84
2022/04/03 08:43:47;;;;;;;1.65;0.95;;;;;;;11.08;72.81;101764.53;5068564;28;20488;-84
2022/04/03 08:46:17;;;;;;;4.82;1.15;;;;;;;11.05;69.38;101759.34;5077156;28;20730;-85
2022/04/03 08:48:45;;;;;;;2.95;1.10;;;;;;;11.02;70.20;101757.66;5066965;28;20541;-84
2022/04/03 08:51:12;;;;;;;2.20;1.00;;;;;;;11.27;72.10;101749.22;5062425;28;20158;-84
2022/04/03 08:53:39;;;;;;;3.45;1.02;;;;;;;11.08;69.01;101751.41;5070590;28;20124;-83
2022/04/03 08:56:06;;;;;;;2.30;1.00;;;;;;;10.81;71.97;101738.06;5070006;28;20052;-84
2022/04/03 08:58:33;;;;;;;2.65;0.90;;;;;;;10.51;71.12;101742.22;5066378;28;20053;-83
2022/04/03 09:01:01;;;;;;;3.13;0.90;;;;;;;11.06;71.21;101748.81;5051034;28;20047;-83
2022/04/03 09:03:27;;;;;;;4.88;1.10;;;;;;;10.60;70.43;101737.63;5064157;28;20045;-83
2022/04/03 09:06:15;;;;;;;2.80;1.10;;;;;;;11.32;71.26;101732.47;5072393;28;20084;-84
2022/04/03 09:08:43;;;;;;;3.25;1.20;;;;;;;10.91;68.85;101738.72;5052137;28;20056;-84
2022/04/03 09:11:10;;;;;;;2.65;1.00;;;;;;;10.90;70.64;101742.22;5060887;28;20053;-83
2022/04/03 09:13:39;;;;;;;2.15;1.02;;;;;;;11.12;69.43;101725.09;5064875;28;20120;-83
2022/04/03 09:16:07;;;;;;;3.60;1.30;;;;;;;10.76;68.84;101722.44;5066132;28;20055;-84
2022/04/03 09:18:53;;;;;;;2.00;1.10;;;;;;;11.27;69.99;101720.38;5075161;28;20080;-84
2022/04/03 09:21:25;;;;;;;3.67;1.33;;;;;;;11.02;69.00;101703.47;5060335;28;20047;-83
2022/04/03 09:24:10;;;;;;;3.45;1.13;;;;;;;10.58;69.43;101700.13;5073551;28;20078;-84
2022/04/03 09:26:39;;;;;;;1.52;0.80;;;;;;;11.48;68.72;101708.50;5053862;28;20103;-84
2022/04/03 09:29:17;;;;;;;3.75;1.00;;;;;;;11.61;67.45;101693.28;5070179;28;20067;-84
2022/04/03 09:31:45;;;;;;;3.63;1.20;;;;;;;11.81;67.54;101690.13;5071666;28;20084;-84
2022/04/03 09:34:20;;;;;;;2.95;1.00;;;;;;;12.02;65.12;101672.94;5065948;28;20045;-84
2022/04/03 09:36:58;;;;;;;3.63;1.00;;;;;;;12.12;63.35;101691.00;5063374;28;20128;-83
2022/04/03 09:39:30;;;;;;;3.45;1.15;;;;;;;12.23;64.20;101679.34;5063255;28;21326;-84
2022/04/03 09:42:05;;;;;;;1.50;0.82;;;;;;;12.48;64.18;101689.97;5066145;28;20049;-83
2022/04/03 09:44:40;;;;;;;3.35;1.27;;;;;;;12.25;63.96;101651.28;5077189;28;20056;-84
2022/04/03 09:47:26;;;;;;;3.10;1.00;;;;;;;11.52;64.87;101686.53;5068422;28;20056;-84
2022/04/03 09:49:58;;;;;;;1.75;1.00;;;;;;;11.52;62.67;101666.41;5073640;28;20048;-84
2022/04/03 09:52:32;;;;;;;1.80;0.80;;;;;;;11.75;60.60;101678.03;5071665;28;20051;-84
2022/04/03 09:55:20;;;;;;;4.68;1.65;;;;;;;12.01;59.12;101658.97;5074918;28;20611;-84
2022/04/03 09:58:02;;;;;;;1.88;1.00;;;;;;;12.18;60.71;101662.88;5072959;28;20048;-85
2022/04/03 10:00:44;;;;;;;3.13;1.20;;;;;;;12.10;60.47;101650.81;5073216;28;20131;-85
2022/04/03 10:03:14;;;;;;;3.15;1.00;;;;;;;12.31;59.40;101658.97;5071358;28;20083;-84
2022/04/03 10:05:42;;;;;;;2.25;1.02;;;;;;;11.81;59.17;101650.75;5072917;28;20052;-85
2022/04/03 10:08:11;;;;;;;2.55;0.95;;;;;;;12.02;58.25;101662.44;5073198;28;20088;-84
2022/04/03 10:10:38;;;;;;;1.60;0.90;;;;;;;12.21;56.56;101645.25;5069399;28;20049;-84
2022/04/03 10:13:06;;;;;;;1.85;0.90;;;;;;;12.51;57.91;101646.06;5061187;28;20045;-85
2022/04/03 10:15:34;;;;;;;4.13;1.13;;;;;;;12.70;54.61;101633.22;5053282;28;20475;-82
2022/04/03 10:18:02;;;;;;;4.57;0.90;;;;;;;12.47;54.03;101618.19;5052998;28;20064;-83
2022/04/03 10:20:29;;;;;;;2.90;0.98;;;;;;;12.79;54.71;101631.22;5055746;28;20059;-83
2022/04/03 10:23:04;;;;;;;2.78;0.90;;;;;;;12.37;55.19;101629.03;5055548;28;20048;-83
2022/04/03 10:25:37;;;;;;;1.48;0.77;;;;;;;12.16;52.22;101615.66;5064145;28;20048;-83
2022/04/03 10:28:07;;;;;;;3.00;1.00;;;;;;;12.08;54.34;101618.50;5070097;28;20044;-83
2022/04/03 10:30:43;;;;;;;2.85;1.00;;;;;;;12.28;55.07;101611.81;5062014;28;20848;-83
2022/04/03 10:33:21;;;;;;;3.25;1.15;;;;;;;12.76;54.66;101586.66;5059399;28;20531;-83
2022/04/03 10:36:10;;;;;;;3.40;1.13;;;;;;;12.20;53.86;101604.16;5070349;28;20062;-83
2022/04/03 10:38:41;;;;;;;2.67;1.00;;;;;;;12.73;55.02;101606.88;5072938;28;20044;-83
2022/04/03 10:41:25;;;;;;;2.13;0.85;;;;;;;12.85;55.15;101592.44;5072502;28;20057;-83
2022/04/03 10:44:14;;;;;;;3.78;1.20;;;;;;;12.39;56.37;101587.81;5070768;28;20055;-82
2022/04/03 10:47:05;;;;;;;2.13;0.90;;;;;;;12.71;55.28;101594.66;5073744;28;20498;-84
2022/04/03 10:49:46;;;;;;;2.58;0.95;;;;;;;12.80;54.88;101588.25;5068820;28;20113;-83
2022/04/03 10:52:25;;;;;;;1.75;1.00;;;;;;;13.16;55.07;101578.25;5071482;28;20052;-86
2022/04/03 10:54:58;;;;;;;2.40;1.10;;;;;;;12.78;54.36;101590.06;5072824;28;20052;-84
2022/04/03 10:57:44;;;;;;;1.83;1.05;;;;;;;13.34;54.97;101576.78;5051634;28;20053;-83
2022/04/03 11:00:11;;;;;;;1.83;0.90;;;;;;;13.01;50.59;101571.75;5056515;28;20098;-82
2022/04/03 11:02:42;;;;;;;1.45;0.80;;;;;;;12.89;53.39;101575.66;5070518;28;20553;-83
2022/04/03 11:05:21;;;;;;;2.80;0.90;;;;;;;13.28;54.04;101574.34;5071645;28;20087;-84
2022/04/03 11:08:03;;;;;;;2.92;0.90;;;;;;;13.37;53.71;101576.69;5066128;28;20105;-84
2022/04/03 11:10:58;;;;;;;2.10;0.82;;;;;;;13.18;53.82;101563.28;5065060;28;20486;-83
2022/04/03 11:13:34;;;;;;;2.35;0.95;;;;;;;13.17;54.90;101561.56;5059960;28;20055;-87
2022/04/03 11:16:01;;;;;;;2.88;1.10;;;;;;;13.09;54.75;101558.34;5062179;28;20095;-84
2022/04/03 11:18:36;;;;;;;4.15;1.35;;;;;;;13.14;54.48;101555.53;5061104;28;20053;-82
2022/04/03 11:21:16;;;;;;;2.28;1.00;;;;;;;13.30;54.17;101559.38;5065467;28;20543;-82
2022/04/03 11:24:06;;;;;;;2.05;0.80;;;;;;;13.66;52.92;101545.81;5064515;28;20506;-83
2022/04/03 11:26:34;;;;;;;0.82;0.70;;;;;;;13.54;52.07;101526.06;5075988;28;20049;-84
2022/04/03 11:29:04;;;;;;;3.00;1.05;;;;;;;12.92;52.55;101556.28;5068011;28;20060;-84
2022/04/03 11:31:31;;;;;;;5.00;1.05;;;;;;;13.13;51.55;101515.25;5068178;28;20105;-84
2022/04/03 11:33:59;;;;;;;2.17;0.90;;;;;;;13.53;50.15;101529.63;5064006;28;20055;-84
2022/04/03 11:36:32;;;;;;;1.88;0.90;;;;;;;13.94;52.15;101515.81;5062855;28;20063;-85